Time;durP1;ratioP1;P1;durP2;ratioP2;P2;SDS_P1;SDS_P2;PMS_P1;PMS_P2;Temp;Humidity;BMP_temperature;BMP_pressure;BME280_temperature;BME280_humidity;BME280_pressure;Samples;Min_cycle;Max_cycle;Signal;HPM_P1;HPM_P2
2022/10/04 00:02:30;;;;;;;12.50;2.75;;;;;;;11.95;100.00;101329.22;4961748;28;20074;-77
2022/10/04 00:05:02;;;;;;;12.05;4.13;;;;;;;11.93;100.00;101331.00;4958746;28;20076;-78
2022/10/04 00:07:37;;;;;;;7.28;3.08;;;;;;;11.88;100.00;101329.34;4976748;28;20042;-78
2022/10/04 00:10:18;;;;;;;10.40;2.75;;;;;;;11.89;100.00;101326.66;5003084;23;20073;-83
2022/10/04 00:12:47;;;;;;;10.07;3.00;;;;;;;11.81;100.00;101326.78;4990844;28;20034;-83
2022/10/04 00:15:24;;;;;;;5.95;2.65;;;;;;;11.86;100.00;101334.66;4991039;28;20581;-83
2022/10/04 00:18:17;;;;;;;10.15;2.65;;;;;;;11.87;100.00;101332.88;5007776;28;20033;-83
2022/10/04 00:20:49;;;;;;;6.72;3.35;;;;;;;11.93;100.00;101327.47;4975086;28;20045;-83
2022/10/04 00:23:21;;;;;;;11.18;3.45;;;;;;;11.88;100.00;101329.34;4982176;28;20510;-83
2022/10/04 00:25:58;;;;;;;8.25;2.70;;;;;;;11.87;100.00;101330.25;4996183;28;20100;-83
2022/10/04 00:28:25;;;;;;;9.85;2.85;;;;;;;11.90;100.00;101328.41;4974462;28;20103;-82
2022/10/04 00:31:12;;;;;;;8.63;2.63;;;;;;;11.83;100.00;101334.69;4996820;28;20042;-83
2022/10/04 00:33:46;;;;;;;6.88;2.30;;;;;;;11.81;100.00;101323.25;5006811;28;20434;-83
2022/10/04 00:36:25;;;;;;;9.65;2.97;;;;;;;11.79;100.00;101333.84;4966884;28;20049;-82
2022/10/04 00:39:04;;;;;;;8.18;3.40;;;;;;;11.80;100.00;101326.81;4981777;28;20144;-82
2022/10/04 00:41:47;;;;;;;10.95;3.08;;;;;;;11.79;100.00;101325.03;4998355;28;20050;-83
2022/10/04 00:44:28;;;;;;;10.55;3.13;;;;;;;11.83;100.00;101321.44;5007126;28;20096;-82
2022/10/04 00:46:56;;;;;;;7.20;2.50;;;;;;;11.72;100.00;101315.44;4986745;28;22339;-82
2022/10/04 00:49:28;;;;;;;11.13;2.70;;;;;;;11.68;100.00;101322.50;4990288;28;20553;-82
2022/10/04 00:51:59;;;;;;;9.68;3.65;;;;;;;11.79;100.00;101319.72;4989692;28;20418;-83
2022/10/04 00:54:29;;;;;;;13.23;3.33;;;;;;;11.73;100.00;101318.03;5005948;28;20034;-83
2022/10/04 00:57:06;;;;;;;9.90;3.10;;;;;;;11.73;100.00;101314.53;4990598;28;20399;-83
2022/10/04 00:59:34;;;;;;;9.50;2.80;;;;;;;11.69;100.00;101310.19;4989122;28;20073;-82
2022/10/04 01:02:11;;;;;;;8.15;2.65;;;;;;;11.68;100.00;101313.69;4981768;28;20108;-83
2022/10/04 01:04:44;;;;;;;7.32;2.70;;;;;;;11.67;100.00;101306.66;4991072;28;20046;-82
2022/10/04 01:07:13;;;;;;;12.48;4.03;;;;;;;11.70;100.00;101310.16;4972786;28;20734;-82
2022/10/04 01:09:46;;;;;;;6.15;2.60;;;;;;;11.58;100.00;101312.97;4949225;28;20045;-83
2022/10/04 01:12:22;;;;;;;7.80;2.83;;;;;;;11.62;100.00;101317.34;4988394;28;20100;-83
2022/10/04 01:15:02;;;;;;;8.25;3.08;;;;;;;11.66;100.00;101318.16;5005705;28;20299;-83
2022/10/04 01:17:28;;;;;;;8.60;3.25;;;;;;;11.63;100.00;101319.06;5006951;28;20030;-84
2022/10/04 01:19:55;;;;;;;11.30;4.32;;;;;;;11.85;100.00;101309.06;4989209;28;20080;-84
2022/10/04 01:22:40;;;;;;;9.10;2.60;;;;;;;11.85;100.00;101311.72;4973445;28;20064;-83
2022/10/04 01:25:08;;;;;;;5.45;2.70;;;;;;;11.92;100.00;101320.44;4990791;28;20053;-84
2022/10/04 01:27:42;;;;;;;6.35;2.78;;;;;;;11.77;100.00;101324.16;4987127;28;20412;-83
2022/10/04 01:30:10;;;;;;;;;;;;;;;11.76;100.00;101309.16;4991493;28;20050;-83
2022/10/04 01:32:38;;;;;;;4.47;2.83;;;;;;;11.72;100.00;101311.00;4959958;28;19968;-82
2022/10/04 01:35:11;;;;;;;10.25;3.47;;;;;;;11.84;100.00;101309.97;4989231;28;20497;-82
2022/10/04 01:37:38;;;;;;;9.18;3.35;;;;;;;11.69;100.00;101316.34;4970536;28;20097;-83
2022/10/04 01:40:07;;;;;;;7.63;2.60;;;;;;;11.65;100.00;101316.41;4989086;28;20046;-84
2022/10/04 01:42:39;;;;;;;7.20;3.03;;;;;;;11.63;100.00;101323.50;5005709;28;20046;-83
2022/10/04 01:45:18;;;;;;;13.00;3.53;;;;;;;11.61;100.00;101322.66;5009392;28;20083;-82
2022/10/04 01:47:51;;;;;;;11.57;3.30;;;;;;;11.67;100.00;101326.06;4988217;28;20050;-83
2022/10/04 01:50:34;;;;;;;17.30;3.80;;;;;;;11.66;100.00;101326.09;5008762;28;20046;-81
2022/10/04 01:53:15;;;;;;;6.13;2.80;;;;;;;11.74;100.00;101321.56;4992743;28;20120;-83
2022/10/04 01:55:44;;;;;;;8.95;3.28;;;;;;;11.75;100.00;101320.66;4992453;28;20099;-83
2022/10/04 01:58:17;;;;;;;12.00;3.92;;;;;;;11.69;100.00;101315.47;4978793;28;20491;-82
2022/10/04 02:00:55;;;;;;;15.88;2.92;;;;;;;11.53;100.00;101314.81;4987490;28;20097;-82
2022/10/04 02:03:32;;;;;;;16.00;4.07;;;;;;;11.61;100.00;101315.59;4972468;28;20053;-83
2022/10/04 02:06:02;;;;;;;9.15;3.55;;;;;;;11.69;100.00;101315.47;4975905;28;20042;-83
2022/10/04 02:08:32;;;;;;;7.63;2.78;;;;;;;11.60;100.00;101310.28;4992339;28;20050;-83
2022/10/04 02:11:00;;;;;;;10.10;3.70;;;;;;;11.56;100.00;101315.63;4976188;28;20050;-82
2022/10/04 02:13:33;;;;;;;8.20;2.88;;;;;;;11.64;100.00;101309.38;5005614;28;20455;-82
2022/10/04 02:16:01;;;;;;;8.90;3.63;;;;;;;11.58;100.00;101305.03;4989001;28;20152;-82
2022/10/04 02:18:30;;;;;;;5.85;2.47;;;;;;;11.63;100.00;101304.97;4973115;28;20101;-83
2022/10/04 02:20:58;;;;;;;8.40;2.63;;;;;;;11.64;100.00;101314.66;4986497;28;20038;-82
2022/10/04 02:23:25;;;;;;;10.45;2.63;;;;;;;11.62;100.00;101306.75;4995886;28;20706;-83
2022/10/04 02:25:52;;;;;;;7.90;2.45;;;;;;;11.59;100.00;101312.06;5011564;28;20447;-83
2022/10/04 02:28:19;;;;;;;8.48;2.83;;;;;;;11.62;100.00;101304.09;4990399;28;20053;-83
2022/10/04 02:33:41;;;;;;;7.20;2.40;;;;;;;11.51;100.00;101306.88;4989930;28;20526;-83
2022/10/04 02:36:08;;;;;;;8.65;3.33;;;;;;;11.51;100.00;101311.28;4970973;28;20042;-80
2022/10/04 02:38:41;;;;;;;7.75;2.53;;;;;;;11.47;100.00;101305.19;5012108;28;20186;-82
2022/10/04 02:41:24;;;;;;;11.95;4.57;;;;;;;11.56;100.00;101306.81;5005393;28;20463;-83
2022/10/04 02:44:13;;;;;;;10.13;2.58;;;;;;;11.55;100.00;101313.00;4979058;28;20039;-84
2022/10/04 02:46:49;;;;;;;7.95;3.10;;;;;;;11.54;100.00;101311.28;5004691;28;20048;-82
2022/10/04 02:49:30;;;;;;;9.30;3.30;;;;;;;11.56;100.00;101306.81;4963478;28;20050;-81
2022/10/04 02:52:02;;;;;;;8.48;2.70;;;;;;;11.55;100.00;101308.59;4963245;28;20041;-83
2022/10/04 02:54:39;;;;;;;6.90;2.47;;;;;;;11.50;100.00;101312.19;4983999;28;20407;-83
2022/10/04 02:57:18;;;;;;;6.07;2.53;;;;;;;11.58;100.00;101307.66;4985251;28;20467;-82
2022/10/04 02:59:45;;;;;;;7.32;2.85;;;;;;;11.50;100.00;101305.13;4960135;28;20558;-83
2022/10/04 03:02:29;;;;;;;10.65;3.00;;;;;;;11.59;100.00;101300.59;4956909;28;20053;-83
2022/10/04 03:05:04;;;;;;;13.25;2.65;;;;;;;11.63;100.00;101295.25;4995166;28;20068;-82
2022/10/04 03:07:35;;;;;;;5.18;2.83;;;;;;;11.53;100.00;101299.81;5000156;28;20042;-83
2022/10/04 03:10:10;;;;;;;5.78;2.67;;;;;;;11.50;100.00;101305.13;4995833;28;20103;-83
2022/10/04 03:12:41;;;;;;;6.72;3.10;;;;;;;11.64;100.00;101301.44;4965311;28;20547;-83
2022/10/04 03:15:09;;;;;;;9.80;2.78;;;;;;;11.42;100.00;101303.50;4980620;28;20593;-82
2022/10/04 03:17:36;;;;;;;8.38;2.53;;;;;;;11.37;100.00;101298.28;4998010;28;20189;-82
2022/10/04 03:20:04;;;;;;;8.10;2.60;;;;;;;11.27;100.00;101300.16;4981982;28;20042;-81
2022/10/04 03:22:31;;;;;;;6.95;2.65;;;;;;;11.32;100.00;101296.56;4994358;28;20049;-82
2022/10/04 03:24:58;;;;;;;9.75;3.30;;;;;;;11.19;100.00;101307.31;4993899;28;20119;-83
2022/10/04 03:27:28;;;;;;;7.53;2.42;;;;;;;11.11;100.00;101303.03;5006819;28;20069;-81
2022/10/04 03:29:55;;;;;;;6.10;2.60;;;;;;;11.06;100.00;101311.00;4975849;28;20100;-82
2022/10/04 03:32:25;;;;;;;9.52;3.35;;;;;;;11.10;100.00;101310.09;4991639;28;20655;-83
2022/10/04 03:35:00;;;;;;;9.40;3.13;;;;;;;11.20;100.00;101309.06;4993328;28;20099;-81
2022/10/04 03:37:28;;;;;;;6.95;2.53;;;;;;;11.21;100.00;101307.31;5007284;28;20050;-82
2022/10/04 03:39:56;;;;;;;8.27;3.10;;;;;;;11.13;100.00;101307.41;4964183;28;20041;-81
2022/10/04 03:42:30;;;;;;;6.45;2.55;;;;;;;11.10;100.00;101303.91;4996792;28;20038;-82
2022/10/04 03:45:11;;;;;;;8.60;2.58;;;;;;;11.12;100.00;101303.00;4988433;28;20038;-81
2022/10/04 03:47:39;;;;;;;7.53;2.40;;;;;;;11.05;100.00;101306.63;4979105;28;20105;-81
2022/10/04 03:50:12;;;;;;;7.53;2.60;;;;;;;10.96;100.00;101307.59;5005381;28;20065;-82
2022/10/04 03:52:49;;;;;;;9.00;2.78;;;;;;;10.85;100.00;101306.84;4992247;28;20084;-82
2022/10/04 03:55:16;;;;;;;10.30;3.20;;;;;;;10.82;100.00;101303.34;4980417;28;20062;-82
2022/10/04 03:57:43;;;;;;;8.07;2.85;;;;;;;10.77;100.00;101303.44;4995469;28;20038;-82
2022/10/04 04:00:14;;;;;;;5.88;2.67;;;;;;;10.73;100.00;101301.69;4992924;28;20045;-82
2022/10/04 04:02:44;;;;;;;6.25;2.67;;;;;;;10.69;100.00;101303.50;4977264;28;20038;-83
2022/10/04 04:05:19;;;;;;;6.45;2.67;;;;;;;10.59;100.00;101300.94;4985703;28;20031;-83
2022/10/04 04:07:53;;;;;;;8.00;3.10;;;;;;;10.56;100.00;101296.59;4976004;28;20045;-82
2022/10/04 04:10:26;;;;;;;6.25;2.17;;;;;;;10.55;100.00;101304.53;4956512;28;20100;-82
2022/10/04 04:13:00;;;;;;;11.18;3.30;;;;;;;10.53;100.00;101299.28;4976611;28;20038;-82
2022/10/04 04:15:28;;;;;;;8.85;2.65;;;;;;;10.50;100.00;101304.56;4972345;28;20415;-80
2022/10/04 04:17:58;;;;;;;7.47;3.38;;;;;;;10.57;100.00;101302.75;4985047;28;20038;-81
2022/10/04 04:20:35;;;;;;;7.38;2.60;;;;;;;10.43;100.00;101302.91;4992755;28;20037;-81
2022/10/04 04:23:14;;;;;;;7.85;2.70;;;;;;;10.38;100.00;101308.22;4949762;28;20093;-80
2022/10/04 04:25:44;;;;;;;9.63;2.85;;;;;;;10.32;100.00;101308.25;4970769;28;20092;-82
2022/10/04 04:28:33;;;;;;;9.50;3.28;;;;;;;10.25;100.00;101303.91;4973780;28;20439;-81
2022/10/04 04:31:07;;;;;;;7.07;2.70;;;;;;;10.25;100.00;101309.19;5003070;28;20061;-82
2022/10/04 04:33:42;;;;;;;9.52;3.33;;;;;;;10.14;100.00;101309.25;4989873;28;20038;-82
2022/10/04 04:36:12;;;;;;;8.48;2.60;;;;;;;10.14;100.00;101309.25;5015297;28;20049;-80
2022/10/04 04:39:33;;;;;;;7.60;2.50;;;;;;;10.09;100.00;101307.56;4990292;28;20038;-79
2022/10/04 04:41:27;;;;;;;7.00;2.47;;;;;;;10.05;100.00;101317.25;5002770;28;20042;-80
2022/10/04 04:43:54;;;;;;;7.82;3.05;;;;;;;10.08;100.00;101317.22;5004116;28;20050;-81
2022/10/04 04:46:21;;;;;;;13.23;2.85;;;;;;;10.09;100.00;101320.78;5011794;28;20038;-79
2022/10/04 04:49:01;;;;;;;8.73;2.30;;;;;;;10.24;100.00;101325.06;4996420;28;20040;-81
2022/10/04 04:51:30;;;;;;;7.30;2.40;;;;;;;10.16;100.00;101328.59;5002290;28;20042;-80
2022/10/04 04:53:58;;;;;;;6.75;2.72;;;;;;;10.18;100.00;101325.09;4989966;28;20045;-80
2022/10/04 04:56:26;;;;;;;9.13;2.95;;;;;;;10.23;100.00;101334.75;5011009;28;20102;-80
2022/10/04 04:58:55;;;;;;;5.22;3.25;;;;;;;10.28;100.00;101332.09;4990593;28;20039;-80
2022/10/04 05:01:28;;;;;;;7.32;3.33;;;;;;;10.28;100.00;101332.09;4982419;28;20053;-79
2022/10/04 05:04:03;;;;;;;6.43;2.95;;;;;;;10.30;100.00;101333.81;4983719;28;20117;-80
2022/10/04 05:06:31;;;;;;;5.15;2.50;;;;;;;10.37;100.00;101322.31;4971019;28;20054;-83
2022/10/04 05:08:58;;;;;;;7.50;3.00;;;;;;;10.39;100.00;101324.94;5009806;28;20073;-81
2022/10/04 05:11:30;;;;;;;7.22;2.38;;;;;;;10.41;100.00;101317.88;4990917;28;20046;-78
2022/10/04 05:14:04;;;;;;;9.30;4.95;;;;;;;10.38;100.00;101323.19;5001717;28;20045;-79
2022/10/04 05:16:50;;;;;;;;;;;;;;;10.38;100.00;101321.41;4984941;28;20042;-80
2022/10/04 05:19:20;;;;;;;7.40;2.38;;;;;;;10.47;100.00;101323.09;5013684;28;19975;-79
2022/10/04 05:21:49;;;;;;;8.10;3.00;;;;;;;10.35;100.00;101315.31;4996612;28;20042;-79
2022/10/04 05:24:30;;;;;;;7.72;2.58;;;;;;;10.34;100.00;101327.63;5005636;28;20038;-79
2022/10/04 05:27:01;;;;;;;5.18;2.42;;;;;;;10.43;100.00;101322.25;4980109;28;20046;-80
2022/10/04 05:29:32;;;;;;;10.13;3.92;;;;;;;10.36;100.00;101320.56;4995952;28;20415;-80
2022/10/04 05:32:22;;;;;;;7.78;2.70;;;;;;;10.35;100.00;101333.78;4991450;28;20038;-80
2022/10/04 05:34:50;;;;;;;8.55;3.33;;;;;;;10.22;100.00;101338.28;4979430;28;20104;-80
2022/10/04 05:37:35;;;;;;;10.70;2.90;;;;;;;10.33;100.00;101340.81;4992912;28;20038;-81
2022/10/04 05:40:13;;;;;;;6.50;3.10;;;;;;;10.35;100.00;101341.72;5002856;28;20069;-79
2022/10/04 05:42:44;;;;;;;8.25;3.05;;;;;;;10.35;100.00;101347.00;4995503;28;20049;-79
2022/10/04 05:45:22;;;;;;;9.05;3.35;;;;;;;10.38;100.00;101339.91;4998131;28;20046;-80
2022/10/04 05:47:50;;;;;;;7.45;3.05;;;;;;;10.31;100.00;101345.25;5013032;28;20038;-80
2022/10/04 05:50:34;;;;;;;7.90;3.17;;;;;;;10.36;100.00;101344.34;4990347;28;20046;-80
2022/10/04 05:53:23;;;;;;;7.22;2.70;;;;;;;10.40;100.00;101342.53;4991645;28;20038;-80
2022/10/04 05:56:17;;;;;;;9.88;3.72;;;;;;;10.48;100.00;101345.09;5009037;28;20410;-80
2022/10/04 05:58:54;;;;;;;9.77;3.67;;;;;;;10.51;100.00;101348.63;4989965;28;20041;-80
2022/10/04 06:01:45;;;;;;;6.72;2.70;;;;;;;10.51;100.00;101355.63;5022257;28;20292;-80
2022/10/04 06:04:39;;;;;;;9.95;3.20;;;;;;;10.61;100.00;101367.91;5001145;28;20072;-80
2022/10/04 06:07:29;;;;;;;9.88;2.95;;;;;;;10.66;100.00;101368.72;4989400;28;20053;-80
2022/10/04 06:10:33;;;;;;;8.23;3.25;;;;;;;10.81;100.00;101365.91;4962587;28;20096;-81
2022/10/04 06:13:05;;;;;;;8.32;3.38;;;;;;;10.85;100.00;101369.44;5092523;23;20049;-77
2022/10/04 06:16:06;;;;;;;11.80;3.33;;;;;;;10.92;100.00;101371.97;5036508;28;20051;-77
2022/10/04 06:18:46;;;;;;;6.68;3.15;;;;;;;11.16;100.00;101370.81;5071124;28;20033;-77
2022/10/04 06:21:18;;;;;;;8.40;3.60;;;;;;;11.05;100.00;101367.44;5067426;28;20055;-77
2022/10/04 06:23:54;;;;;;;8.25;2.90;;;;;;;11.08;100.00;101374.44;5033595;28;20044;-77
2022/10/04 06:26:26;;;;;;;10.30;3.05;;;;;;;11.14;100.00;101364.69;5050025;28;20114;-77
2022/10/04 06:29:09;;;;;;;8.73;3.08;;;;;;;11.23;100.00;101369.00;5071716;28;20028;-77
2022/10/04 06:31:52;;;;;;;6.55;2.63;;;;;;;11.28;100.00;101369.81;5025580;28;20142;-77
2022/10/04 06:34:54;;;;;;;8.30;3.00;;;;;;;11.46;100.00;101361.66;5038570;28;20048;-77
2022/10/04 06:37:31;;;;;;;8.60;3.22;;;;;;;11.47;100.00;101367.81;5051344;28;20049;-77
2022/10/04 06:40:17;;;;;;;4.45;2.67;;;;;;;11.46;100.00;101364.28;5071131;28;20059;-77
2022/10/04 06:43:09;;;;;;;10.38;3.47;;;;;;;11.57;100.00;101366.78;5054803;28;20586;-77
2022/10/04 06:46:13;;;;;;;10.63;3.08;;;;;;;11.68;100.00;101361.34;5035285;28;20494;-77
2022/10/04 06:49:01;;;;;;;8.90;3.73;;;;;;;11.78;100.00;101366.50;5050321;28;20048;-77
2022/10/04 06:51:33;;;;;;;10.40;2.90;;;;;;;11.97;100.00;101369.78;5068130;28;20279;-77
2022/10/04 06:54:14;;;;;;;7.88;2.95;;;;;;;12.24;100.00;101373.78;5047541;28;20063;-77
2022/10/04 06:56:59;;;;;;;5.75;2.75;;;;;;;12.38;100.00;101373.56;5050579;28;20046;-77
2022/10/04 06:59:47;;;;;;;7.95;2.78;;;;;;;12.64;100.00;101379.31;5046973;28;20041;-77
2022/10/04 07:02:19;;;;;;;12.15;2.80;;;;;;;12.90;100.00;101373.53;5030561;28;20044;-77
2022/10/04 07:04:55;;;;;;;5.53;2.65;;;;;;;13.01;100.00;101372.44;5053981;28;20063;-77
2022/10/04 07:07:36;;;;;;;9.95;2.85;;;;;;;13.00;100.00;101384.84;5055831;28;20258;-78
2022/10/04 07:10:23;;;;;;;6.93;2.75;;;;;;;13.20;100.00;101385.38;5020827;28;20059;-77
2022/10/04 07:13:27;;;;;;;12.30;2.92;;;;;;;13.36;100.00;101379.72;5037773;28;20044;-78
2022/10/04 07:16:03;;;;;;;6.45;3.20;;;;;;;13.26;100.00;101391.44;5041202;28;20056;-77
2022/10/04 07:18:34;;;;;;;7.30;3.28;;;;;;;13.21;100.00;101387.13;5048909;28;20090;-77
2022/10/04 07:21:06;;;;;;;11.40;3.45;;;;;;;13.42;100.00;101400.84;5056464;28;20060;-77
2022/10/04 07:23:50;;;;;;;9.05;3.38;;;;;;;13.32;100.00;101388.69;5054444;28;20094;-78
2022/10/04 07:26:24;;;;;;;7.82;2.40;;;;;;;13.06;100.00;101391.81;5052064;28;20048;-77
2022/10/04 07:31:40;;;;;;;9.38;2.83;;;;;;;13.00;100.00;101402.53;5038087;28;20497;-77
2022/10/04 07:34:16;;;;;;;6.53;2.88;;;;;;;12.78;100.00;101396.72;5038055;28;20491;-76
2022/10/04 07:36:47;;;;;;;9.23;3.13;;;;;;;12.81;100.00;101404.66;5046410;28;20037;-77
2022/10/04 07:39:15;;;;;;;7.72;3.78;;;;;;;12.79;100.00;101399.38;5051368;28;20535;-78
2022/10/04 07:41:49;;;;;;;6.78;3.58;;;;;;;12.85;100.00;101407.19;5045441;28;20037;-77
2022/10/04 07:44:33;;;;;;;9.80;3.67;;;;;;;12.81;100.00;101410.81;5053160;28;20114;-77
2022/10/04 07:47:05;;;;;;;8.32;3.63;;;;;;;12.76;100.00;101407.38;5050571;28;20102;-78
2022/10/04 07:49:38;;;;;;;7.85;2.72;;;;;;;12.78;100.00;101421.50;5054032;28;20044;-78
2022/10/04 07:52:19;;;;;;;13.65;3.08;;;;;;;12.91;100.00;101415.06;5038177;28;20128;-77
2022/10/04 07:55:08;;;;;;;9.00;3.53;;;;;;;12.67;100.00;101426.09;5046337;28;20040;-77
2022/10/04 07:57:45;;;;;;;7.65;3.35;;;;;;;12.78;100.00;101429.44;5049876;28;20056;-77
2022/10/04 08:00:15;;;;;;;5.70;2.67;;;;;;;12.75;100.00;101423.31;5019527;28;20040;-78
2022/10/04 08:03:05;;;;;;;5.00;2.38;;;;;;;12.76;100.00;101433.88;5045554;28;20083;-78
2022/10/04 08:05:44;;;;;;;10.85;3.13;;;;;;;12.77;100.00;101437.41;5053485;28;20093;-77
2022/10/04 08:08:43;;;;;;;5.72;2.83;;;;;;;12.76;100.00;101438.31;5037331;28;20041;-77
2022/10/04 08:11:42;;;;;;;9.68;3.53;;;;;;;12.62;100.00;101442.09;5052271;28;20455;-77
2022/10/04 08:14:28;;;;;;;11.25;3.10;;;;;;;12.72;100.00;101444.59;5047749;28;20064;-77
2022/10/04 08:17:18;;;;;;;8.05;2.58;;;;;;;12.67;100.00;101442.88;5063068;28;20493;-78
2022/10/04 08:19:59;;;;;;;8.63;3.22;;;;;;;12.79;100.00;101448.88;5034988;28;20033;-77
2022/10/04 08:22:50;;;;;;;8.20;3.38;;;;;;;12.79;100.00;101449.75;5053004;28;20094;-77
2022/10/04 08:25:31;;;;;;;5.90;2.50;;;;;;;12.87;100.00;101445.19;5032886;28;20041;-77
2022/10/04 08:31:26;;;;;;;5.45;2.83;;;;;;;12.85;100.00;101452.28;5045447;28;20055;-78
2022/10/04 08:34:04;;;;;;;8.45;2.85;;;;;;;12.87;100.00;101458.47;5035760;28;20059;-78
2022/10/04 08:37:00;;;;;;;5.43;2.85;;;;;;;12.86;100.00;101454.06;5042885;28;20037;-77
2022/10/04 08:39:31;;;;;;;6.85;2.80;;;;;;;12.91;100.00;101461.91;5053673;28;20037;-78
2022/10/04 08:42:15;;;;;;;6.53;2.65;;;;;;;12.89;100.00;101463.72;5025157;28;20041;-78
2022/10/04 08:45:15;;;;;;;9.73;2.88;;;;;;;12.69;100.00;101466.69;5053514;28;20060;-77
2022/10/04 08:48:18;;;;;;;8.40;2.60;;;;;;;12.80;100.00;101467.41;5018952;28;20060;-78
2022/10/04 08:51:23;;;;;;;6.50;2.75;;;;;;;12.87;100.00;101462.88;5036203;28;20029;-77
2022/10/04 08:54:20;;;;;;;7.35;2.28;;;;;;;13.04;100.00;101455.50;5069041;28;20584;-78
2022/10/04 08:56:56;;;;;;;6.82;2.20;;;;;;;13.12;100.00;101452.72;5050832;28;20033;-78
2022/10/04 08:59:38;;;;;;;5.45;2.50;;;;;;;13.25;100.00;101454.25;5019327;28;20037;-77
2022/10/04 09:02:33;;;;;;;6.82;2.55;;;;;;;13.26;100.00;101460.44;5054346;28;20106;-77
2022/10/04 09:05:28;;;;;;;6.68;2.55;;;;;;;13.31;100.00;101456.81;5043599;28;20044;-78
2022/10/04 09:08:08;;;;;;;5.05;2.05;;;;;;;13.36;100.00;101459.34;5074414;28;20040;-77
2022/10/04 09:10:55;;;;;;;4.03;2.22;;;;;;;13.48;100.00;101457.34;5043414;28;20040;-77
2022/10/04 09:13:48;;;;;;;10.23;2.28;;;;;;;13.55;100.00;101454.59;5045072;28;20036;-77
2022/10/04 09:16:47;;;;;;;5.30;2.20;;;;;;;13.50;100.00;101455.53;5054239;28;20044;-78
2022/10/04 09:19:32;;;;;;;6.15;2.20;;;;;;;13.51;100.00;101454.63;5035934;28;20447;-78
2022/10/04 09:22:16;;;;;;;5.07;2.33;;;;;;;13.54;100.00;101459.03;5056794;28;20051;-77
2022/10/04 09:25:12;;;;;;;3.80;2.08;;;;;;;13.72;100.00;101457.78;5047121;28;20055;-78
2022/10/04 09:28:07;;;;;;;6.18;1.95;;;;;;;13.85;100.00;101455.72;5040730;28;20032;-78
2022/10/04 09:30:57;;;;;;;6.22;2.40;;;;;;;14.02;100.00;101459.75;5045582;28;20425;-77
2022/10/04 09:33:31;;;;;;;8.48;2.55;;;;;;;14.07;100.00;101460.53;5027081;28;20049;-78
2022/10/04 09:36:15;;;;;;;4.68;1.85;;;;;;;13.89;100.00;101463.59;5050525;28;20071;-78
2022/10/04 09:39:03;;;;;;;13.77;2.57;;;;;;;14.09;100.00;101455.19;5042682;28;20047;-77
2022/10/04 09:42:22;;;;;;;3.80;1.60;;;;;;;14.22;100.00;101454.00;5040298;28;20318;-78
2022/10/04 09:45:08;;;;;;;4.57;1.80;;;;;;;14.37;100.00;101456.28;5052970;28;20714;-77
2022/10/04 09:47:41;;;;;;;7.43;2.40;;;;;;;14.24;100.00;101459.28;5057367;28;20048;-78
2022/10/04 09:50:36;;;;;;;5.60;1.92;;;;;;;14.35;100.00;101458.13;5052708;28;20032;-78
2022/10/04 09:53:36;;;;;;;5.50;2.17;;;;;;;14.60;100.00;101454.91;5051192;28;20040;-78
2022/10/04 09:56:29;;;;;;;5.45;1.90;;;;;;;14.57;100.00;101450.53;5026736;28;20045;-77
2022/10/04 09:59:37;;;;;;;4.47;1.70;;;;;;;14.66;100.00;101453.91;5072840;28;20040;-77
2022/10/04 10:02:27;;;;;;;4.95;2.20;;;;;;;14.72;100.00;101457.28;5016302;28;20061;-77
2022/10/04 10:05:21;;;;;;;4.55;2.00;;;;;;;14.81;100.00;101456.19;5055950;28;20028;-78
2022/10/04 10:07:53;;;;;;;3.80;1.85;;;;;;;14.95;100.00;101454.00;5043341;28;20385;-78
2022/10/04 10:16:11;;;;;;;4.53;2.15;;;;;;;15.25;100.00;101447.03;5075011;28;20051;-78
2022/10/04 10:19:03;;;;;;;5.50;2.40;;;;;;;15.21;100.00;101445.34;5077658;28;20039;-78
2022/10/04 10:21:44;;;;;;;5.60;2.20;;;;;;;15.36;100.00;101452.03;5045580;28;20463;-78
2022/10/04 10:24:36;;;;;;;4.55;2.25;;;;;;;15.42;100.00;101454.53;5037552;28;20044;-78
2022/10/04 10:27:23;;;;;;;5.85;2.75;;;;;;;15.65;98.96;101449.47;5069858;28;20083;-78
2022/10/04 10:29:58;;;;;;;6.20;2.55;;;;;;;15.72;98.31;101448.38;5063644;28;20086;-78
2022/10/04 10:32:43;;;;;;;5.43;2.67;;;;;;;15.77;98.07;101457.09;5044169;28;20045;-77
2022/10/04 10:35:27;;;;;;;4.50;2.72;;;;;;;15.62;92.38;101454.00;5059523;28;20040;-77
2022/10/04 10:38:49;;;;;;;5.82;3.10;;;;;;;15.53;99.43;101468.41;5031393;28;20036;-77
2022/10/04 10:41:52;;;;;;;6.22;3.65;;;;;;;15.57;99.70;101458.56;4996730;28;20116;-77
2022/10/04 10:44:33;;;;;;;5.35;3.22;;;;;;;15.69;98.79;101472.44;4988998;28;20511;-77
2022/10/04 10:47:10;;;;;;;4.93;2.90;;;;;;;15.78;96.46;101473.94;5058235;28;20102;-77
2022/10/04 10:50:05;;;;;;;4.28;2.72;;;;;;;15.81;96.85;101460.56;5074355;28;20037;-77
2022/10/04 10:52:58;;;;;;;4.95;2.58;;;;;;;16.03;94.44;101453.66;5057879;28;20040;-77
2022/10/04 10:56:01;;;;;;;5.15;2.92;;;;;;;16.23;95.66;101453.06;5041004;28;20037;-76
2022/10/04 10:58:56;;;;;;;6.32;3.05;;;;;;;16.43;95.16;101446.22;5040986;28;20040;-77
2022/10/04 11:02:03;;;;;;;6.10;2.90;;;;;;;16.43;92.99;101449.75;5057011;28;20048;-77
2022/10/04 11:04:42;;;;;;;3.85;2.80;;;;;;;16.44;89.30;101443.50;5058479;28;20472;-77
2022/10/04 11:07:40;;;;;;;7.53;2.45;;;;;;;16.54;89.92;101444.94;5039609;28;20095;-77
2022/10/04 11:10:45;;;;;;;5.93;2.95;;;;;;;16.51;90.30;101434.38;5036595;28;20465;-76
2022/10/04 11:13:17;;;;;;;4.88;2.90;;;;;;;16.43;93.18;101439.09;5039817;28;20097;-76
2022/10/04 11:16:21;;;;;;;4.80;2.92;;;;;;;16.36;90.08;101434.88;5074383;28;20046;-77
2022/10/04 11:19:28;;;;;;;4.97;2.80;;;;;;;16.26;93.45;101433.41;5077556;28;20048;-77
2022/10/04 11:22:16;;;;;;;3.67;2.75;;;;;;;16.13;95.81;101424.03;5043703;28;20043;-77
2022/10/04 11:25:04;;;;;;;7.25;3.65;;;;;;;16.19;93.50;101432.72;5058031;28;20039;-77
2022/10/04 11:27:48;;;;;;;8.93;3.28;;;;;;;16.13;91.75;101424.91;5059961;28;20049;-77
2022/10/04 11:30:24;;;;;;;5.28;2.92;;;;;;;16.11;92.60;101421.44;5063877;28;20112;-76
2022/10/04 11:33:10;;;;;;;5.68;3.17;;;;;;;16.00;93.36;101418.25;5055643;28;20041;-77
2022/10/04 11:35:44;;;;;;;4.63;3.00;;;;;;;16.08;94.23;101421.53;5077812;28;20087;-77
2022/10/04 11:38:30;;;;;;;;;;;;;;;16.10;93.53;101421.50;5070445;28;20040;-77
2022/10/04 11:41:15;;;;;;;5.65;3.08;;;;;;;16.37;94.37;101415.28;5063301;28;19970;-77
2022/10/04 11:44:17;;;;;;;6.85;3.20;;;;;;;16.35;90.09;101414.44;5056609;28;20047;-77
2022/10/04 11:46:51;;;;;;;5.78;2.67;;;;;;;16.36;89.19;101415.31;5053514;28;20098;-77
2022/10/04 11:49:36;;;;;;;4.40;2.53;;;;;;;16.26;90.99;101409.41;5054074;28;20029;-77
2022/10/04 11:52:43;;;;;;;5.00;3.03;;;;;;;16.24;90.70;101414.81;5053439;28;20044;-77
2022/10/04 11:55:31;;;;;;;3.90;2.22;;;;;;;16.47;89.78;101418.50;5068695;28;20447;-77
2022/10/04 11:58:14;;;;;;;5.03;2.38;;;;;;;16.79;85.80;101412.13;5070996;28;20037;-78
2022/10/04 12:00:52;;;;;;;3.88;2.78;;;;;;;16.93;84.80;101411.66;5053487;28;20028;-77
2022/10/04 12:03:31;;;;;;;4.18;2.50;;;;;;;16.86;86.40;101411.88;5070212;28;20436;-77
2022/10/04 12:06:18;;;;;;;5.97;3.22;;;;;;;16.91;85.78;101408.19;5065370;28;20051;-76
2022/10/04 12:09:03;;;;;;;4.57;2.50;;;;;;;16.82;84.17;101409.38;5049855;28;20383;-77
2022/10/04 12:14:45;;;;;;;5.95;2.53;;;;;;;16.74;84.73;101412.31;5088269;22;20041;31
2022/10/04 12:17:51;;;;;;;6.90;2.70;;;;;;;16.69;83.98;101413.38;5031374;28;20045;-81
2022/10/04 12:20:26;;;;;;;4.82;2.25;;;;;;;16.55;88.58;101412.00;5007783;28;20041;-78
2022/10/04 12:23:10;;;;;;;7.78;2.45;;;;;;;16.65;84.88;101409.91;5056842;28;20067;-80
2022/10/04 12:26:13;;;;;;;6.53;2.88;;;;;;;16.62;84.73;101412.66;5035970;28;20102;-81
2022/10/04 12:29:10;;;;;;;6.45;2.67;;;;;;;16.58;87.05;101411.91;5002113;28;20525;-79
2022/10/04 12:31:48;;;;;;;4.80;2.65;;;;;;;16.49;90.08;101414.00;5018231;28;20049;-78
2022/10/04 12:34:27;;;;;;;5.03;2.60;;;;;;;16.61;86.89;101400.25;5001114;28;20053;-78